sensor_id;sensor_type;location;lat;lon;timestamp;P1;durP1;ratioP1;P2;durP2;ratioP2
60318;SDS011;46163;52.306;5.634;2023-02-12T00:02:14;1.40;;;1.30;;
60318;SDS011;46163;52.306;5.634;2023-02-12T00:04:40;1.40;;;1.33;;
60318;SDS011;46163;52.306;5.634;2023-02-12T00:07:08;1.40;;;1.30;;
60318;SDS011;46163;52.306;5.634;2023-02-12T00:09:37;2.22;;;1.70;;
60318;SDS011;46163;52.306;5.634;2023-02-12T00:12:06;1.50;;;1.40;;
60318;SDS011;46163;52.306;5.634;2023-02-12T00:14:39;1.45;;;1.30;;
60318;SDS011;46163;52.306;5.634;2023-02-12T00:17:07;1.20;;;1.20;;
60318;SDS011;46163;52.306;5.634;2023-02-12T00:19:33;1.50;;;1.40;;
60318;SDS011;46163;52.306;5.634;2023-02-12T00:22:00;1.48;;;1.38;;
60318;SDS011;46163;52.306;5.634;2023-02-12T00:24:31;1.38;;;1.30;;
60318;SDS011;46163;52.306;5.634;2023-02-12T00:27:01;1.40;;;1.30;;
60318;SDS011;46163;52.306;5.634;2023-02-12T00:29:30;1.35;;;1.25;;
60318;SDS011;46163;52.306;5.634;2023-02-12T00:32:03;1.40;;;1.30;;
60318;SDS011;46163;52.306;5.634;2023-02-12T00:34:45;1.50;;;1.40;;
60318;SDS011;46163;52.306;5.634;2023-02-12T00:37:11;1.20;;;1.20;;
60318;SDS011;46163;52.306;5.634;2023-02-12T00:39:47;1.50;;;1.40;;
60318;SDS011;46163;52.306;5.634;2023-02-12T00:42:21;1.40;;;1.30;;
60318;SDS011;46163;52.306;5.634;2023-02-12T00:44:46;1.73;;;1.40;;
60318;SDS011;46163;52.306;5.634;2023-02-12T00:47:15;1.60;;;1.40;;
60318;SDS011;46163;52.306;5.634;2023-02-12T00:49:43;1.48;;;1.33;;
60318;SDS011;46163;52.306;5.634;2023-02-12T00:52:09;1.50;;;1.40;;
60318;SDS011;46163;52.306;5.634;2023-02-12T00:54:34;1.30;;;1.30;;
60318;SDS011;46163;52.306;5.634;2023-02-12T00:57:00;1.90;;;1.25;;
60318;SDS011;46163;52.306;5.634;2023-02-12T00:59:26;1.50;;;1.40;;
60318;SDS011;46163;52.306;5.634;2023-02-12T01:01:52;1.35;;;1.35;;
60318;SDS011;46163;52.306;5.634;2023-02-12T01:04:19;1.42;;;1.30;;
60318;SDS011;46163;52.306;5.634;2023-02-12T01:06:45;1.50;;;1.40;;
60318;SDS011;46163;52.306;5.634;2023-02-12T01:09:11;1.50;;;1.40;;
60318;SDS011;46163;52.306;5.634;2023-02-12T01:11:36;1.38;;;1.38;;
60318;SDS011;46163;52.306;5.634;2023-02-12T01:14:11;1.23;;;1.20;;
60318;SDS011;46163;52.306;5.634;2023-02-12T01:16:37;1.63;;;1.40;;
60318;SDS011;46163;52.306;5.634;2023-02-12T01:19:03;1.77;;;1.50;;
60318;SDS011;46163;52.306;5.634;2023-02-12T01:21:29;1.40;;;1.30;;
60318;SDS011;46163;52.306;5.634;2023-02-12T01:23:56;1.48;;;1.38;;
60318;SDS011;46163;52.306;5.634;2023-02-12T01:26:22;1.67;;;1.58;;
60318;SDS011;46163;52.306;5.634;2023-02-12T01:28:50;1.20;;;1.20;;
60318;SDS011;46163;52.306;5.634;2023-02-12T01:31:18;1.63;;;1.52;;
60318;SDS011;46163;52.306;5.634;2023-02-12T01:33:47;1.77;;;1.50;;
60318;SDS011;46163;52.306;5.634;2023-02-12T01:36:13;1.60;;;1.50;;
60318;SDS011;46163;52.306;5.634;2023-02-12T01:38:39;1.45;;;1.23;;
60318;SDS011;46163;52.306;5.634;2023-02-12T01:41:08;1.20;;;1.20;;
60318;SDS011;46163;52.306;5.634;2023-02-12T01:43:38;1.90;;;1.38;;
60318;SDS011;46163;52.306;5.634;2023-02-12T01:46:05;1.60;;;1.50;;
60318;SDS011;46163;52.306;5.634;2023-02-12T01:48:34;1.50;;;1.40;;
60318;SDS011;46163;52.306;5.634;2023-02-12T01:51:09;1.60;;;1.50;;
60318;SDS011;46163;52.306;5.634;2023-02-12T01:53:40;1.50;;;1.40;;
60318;SDS011;46163;52.306;5.634;2023-02-12T01:56:11;1.75;;;1.40;;
60318;SDS011;46163;52.306;5.634;2023-02-12T01:58:38;1.50;;;1.40;;
60318;SDS011;46163;52.306;5.634;2023-02-12T02:01:07;1.70;;;1.60;;
60318;SDS011;46163;52.306;5.634;2023-02-12T02:03:37;1.35;;;1.33;;
60318;SDS011;46163;52.306;5.634;2023-02-12T02:06:12;1.48;;;1.40;;
60318;SDS011;46163;52.306;5.634;2023-02-12T02:08:41;1.60;;;1.50;;
60318;SDS011;46163;52.306;5.634;2023-02-12T02:11:06;1.50;;;1.40;;
60318;SDS011;46163;52.306;5.634;2023-02-12T02:13:51;1.35;;;1.30;;
60318;SDS011;46163;52.306;5.634;2023-02-12T02:16:36;1.35;;;1.35;;
60318;SDS011;46163;52.306;5.634;2023-02-12T02:19:08;1.38;;;1.30;;
60318;SDS011;46163;52.306;5.634;2023-02-12T02:30:37;1.30;;;1.20;;
60318;SDS011;46163;52.306;5.634;2023-02-12T02:33:16;1.40;;;1.30;;
60318;SDS011;46163;52.306;5.634;2023-02-12T02:38:23;1.50;;;1.40;;
60318;SDS011;46163;52.306;5.634;2023-02-12T02:40:57;1.10;;;1.10;;
60318;SDS011;46163;52.306;5.634;2023-02-12T02:43:28;1.45;;;1.35;;
60318;SDS011;46163;52.306;5.634;2023-02-12T02:49:10;1.42;;;1.33;;
60318;SDS011;46163;52.306;5.634;2023-02-12T02:51:44;1.23;;;1.23;;
60318;SDS011;46163;52.306;5.634;2023-02-12T02:54:15;1.50;;;1.40;;
60318;SDS011;46163;52.306;5.634;2023-02-12T02:59:10;1.50;;;1.40;;
60318;SDS011;46163;52.306;5.634;2023-02-12T03:01:49;1.50;;;1.40;;
60318;SDS011;46163;52.306;5.634;2023-02-12T03:04:21;1.48;;;1.40;;
60318;SDS011;46163;52.306;5.634;2023-02-12T03:06:57;1.13;;;1.08;;
60318;SDS011;46163;52.306;5.634;2023-02-12T03:09:31;1.20;;;1.20;;
60318;SDS011;46163;52.306;5.634;2023-02-12T03:12:03;2.00;;;1.48;;
60318;SDS011;46163;52.306;5.634;2023-02-12T03:14:35;1.20;;;1.20;;
60318;SDS011;46163;52.306;5.634;2023-02-12T03:17:09;1.40;;;1.40;;
60318;SDS011;46163;52.306;5.634;2023-02-12T03:19:41;1.50;;;1.40;;
60318;SDS011;46163;52.306;5.634;2023-02-12T03:22:20;1.27;;;1.27;;
60318;SDS011;46163;52.306;5.634;2023-02-12T03:24:53;1.40;;;1.30;;
60318;SDS011;46163;52.306;5.634;2023-02-12T03:27:30;3.05;;;1.30;;
60318;SDS011;46163;52.306;5.634;2023-02-12T03:29:59;1.10;;;1.10;;
60318;SDS011;46163;52.306;5.634;2023-02-12T03:38:23;1.50;;;1.40;;
60318;SDS011;46163;52.306;5.634;2023-02-12T03:43:48;1.20;;;1.20;;
60318;SDS011;46163;52.306;5.634;2023-02-12T03:49:06;1.30;;;1.25;;
60318;SDS011;46163;52.306;5.634;2023-02-12T03:51:39;1.30;;;1.30;;
60318;SDS011;46163;52.306;5.634;2023-02-12T03:54:08;1.30;;;1.20;;
60318;SDS011;46163;52.306;5.634;2023-02-12T03:59:02;1.23;;;1.17;;
60318;SDS011;46163;52.306;5.634;2023-02-12T04:01:30;1.30;;;1.30;;
60318;SDS011;46163;52.306;5.634;2023-02-12T04:03:57;1.20;;;1.20;;
60318;SDS011;46163;52.306;5.634;2023-02-12T04:06:25;1.10;;;1.10;;
60318;SDS011;46163;52.306;5.634;2023-02-12T04:08:52;1.10;;;1.10;;
60318;SDS011;46163;52.306;5.634;2023-02-12T04:17:05;1.20;;;1.20;;
60318;SDS011;46163;52.306;5.634;2023-02-12T04:33:09;1.10;;;1.10;;
60318;SDS011;46163;52.306;5.634;2023-02-12T04:40:38;1.17;;;1.17;;
60318;SDS011;46163;52.306;5.634;2023-02-12T04:43:05;1.10;;;1.10;;
60318;SDS011;46163;52.306;5.634;2023-02-12T04:45:32;1.10;;;1.00;;
60318;SDS011;46163;52.306;5.634;2023-02-12T04:48:00;1.00;;;1.00;;
60318;SDS011;46163;52.306;5.634;2023-02-12T04:50:27;1.10;;;1.10;;
60318;SDS011;46163;52.306;5.634;2023-02-12T04:53:07;0.95;;;0.95;;
60318;SDS011;46163;52.306;5.634;2023-02-12T04:55:33;1.08;;;1.08;;
60318;SDS011;46163;52.306;5.634;2023-02-12T04:57:58;0.98;;;0.98;;
60318;SDS011;46163;52.306;5.634;2023-02-12T05:00:24;1.02;;;1.02;;
60318;SDS011;46163;52.306;5.634;2023-02-12T05:02:49;0.90;;;0.90;;
60318;SDS011;46163;52.306;5.634;2023-02-12T05:05:15;0.93;;;0.93;;
60318;SDS011;46163;52.306;5.634;2023-02-12T05:07:40;0.90;;;0.90;;
60318;SDS011;46163;52.306;5.634;2023-02-12T05:10:06;1.13;;;1.10;;
60318;SDS011;46163;52.306;5.634;2023-02-12T05:12:32;1.15;;;1.05;;
60318;SDS011;46163;52.306;5.634;2023-02-12T05:14:58;1.00;;;1.00;;
60318;SDS011;46163;52.306;5.634;2023-02-12T05:17:31;0.90;;;0.90;;
60318;SDS011;46163;52.306;5.634;2023-02-12T05:20:01;1.00;;;1.00;;
60318;SDS011;46163;52.306;5.634;2023-02-12T05:22:39;0.90;;;0.90;;
60318;SDS011;46163;52.306;5.634;2023-02-12T05:25:08;0.80;;;0.80;;
60318;SDS011;46163;52.306;5.634;2023-02-12T05:27:35;0.88;;;0.88;;
60318;SDS011;46163;52.306;5.634;2023-02-12T05:30:07;0.90;;;0.90;;
60318;SDS011;46163;52.306;5.634;2023-02-12T05:32:33;1.00;;;1.00;;
60318;SDS011;46163;52.306;5.634;2023-02-12T05:35:05;1.00;;;1.00;;
60318;SDS011;46163;52.306;5.634;2023-02-12T05:37:49;1.08;;;1.08;;
60318;SDS011;46163;52.306;5.634;2023-02-12T05:40:14;1.10;;;1.10;;
60318;SDS011;46163;52.306;5.634;2023-02-12T05:42:42;1.00;;;1.00;;
60318;SDS011;46163;52.306;5.634;2023-02-12T05:45:08;0.80;;;0.80;;
60318;SDS011;46163;52.306;5.634;2023-02-12T05:47:33;0.90;;;0.90;;
60318;SDS011;46163;52.306;5.634;2023-02-12T05:49:59;0.85;;;0.85;;
60318;SDS011;46163;52.306;5.634;2023-02-12T05:52:24;0.93;;;0.93;;
60318;SDS011;46163;52.306;5.634;2023-02-12T05:54:50;1.00;;;1.00;;
60318;SDS011;46163;52.306;5.634;2023-02-12T05:57:15;0.90;;;0.90;;
60318;SDS011;46163;52.306;5.634;2023-02-12T05:59:41;1.00;;;1.00;;
60318;SDS011;46163;52.306;5.634;2023-02-12T06:02:06;0.77;;;0.77;;
60318;SDS011;46163;52.306;5.634;2023-02-12T06:04:32;0.80;;;0.80;;
60318;SDS011;46163;52.306;5.634;2023-02-12T06:06:58;0.85;;;0.85;;
60318;SDS011;46163;52.306;5.634;2023-02-12T06:09:25;0.93;;;0.90;;
60318;SDS011;46163;52.306;5.634;2023-02-12T06:11:50;1.02;;;1.02;;
60318;SDS011;46163;52.306;5.634;2023-02-12T06:14:17;0.85;;;0.85;;
60318;SDS011;46163;52.306;5.634;2023-02-12T06:16:45;1.17;;;1.00;;
60318;SDS011;46163;52.306;5.634;2023-02-12T06:19:12;0.65;;;0.65;;
60318;SDS011;46163;52.306;5.634;2023-02-12T06:21:37;0.70;;;0.70;;
60318;SDS011;46163;52.306;5.634;2023-02-12T06:24:03;0.90;;;0.90;;
60318;SDS011;46163;52.306;5.634;2023-02-12T06:26:29;1.00;;;1.00;;
60318;SDS011;46163;52.306;5.634;2023-02-12T06:28:54;0.90;;;0.90;;
60318;SDS011;46163;52.306;5.634;2023-02-12T06:33:50;0.90;;;0.90;;
60318;SDS011;46163;52.306;5.634;2023-02-12T06:36:17;1.10;;;1.10;;
60318;SDS011;46163;52.306;5.634;2023-02-12T06:38:43;0.77;;;0.77;;
60318;SDS011;46163;52.306;5.634;2023-02-12T06:41:09;0.80;;;0.80;;
60318;SDS011;46163;52.306;5.634;2023-02-12T06:43:34;1.13;;;1.02;;
60318;SDS011;46163;52.306;5.634;2023-02-12T06:46:00;0.85;;;0.85;;
60318;SDS011;46163;52.306;5.634;2023-02-12T06:48:26;0.80;;;0.80;;
60318;SDS011;46163;52.306;5.634;2023-02-12T06:50:52;0.90;;;0.90;;
60318;SDS011;46163;52.306;5.634;2023-02-12T06:53:18;0.90;;;0.90;;
60318;SDS011;46163;52.306;5.634;2023-02-12T06:55:43;0.85;;;0.80;;
60318;SDS011;46163;52.306;5.634;2023-02-12T06:58:08;0.85;;;0.85;;
60318;SDS011;46163;52.306;5.634;2023-02-12T07:00:34;1.00;;;1.00;;
60318;SDS011;46163;52.306;5.634;2023-02-12T07:03:00;0.85;;;0.85;;
60318;SDS011;46163;52.306;5.634;2023-02-12T07:05:25;0.95;;;0.95;;
60318;SDS011;46163;52.306;5.634;2023-02-12T07:07:51;0.70;;;0.70;;
60318;SDS011;46163;52.306;5.634;2023-02-12T07:10:16;0.98;;;0.98;;
60318;SDS011;46163;52.306;5.634;2023-02-12T07:12:42;1.10;;;1.10;;
60318;SDS011;46163;52.306;5.634;2023-02-12T07:15:08;0.80;;;0.80;;
60318;SDS011;46163;52.306;5.634;2023-02-12T07:17:34;2.92;;;0.90;;
60318;SDS011;46163;52.306;5.634;2023-02-12T07:20:00;0.98;;;0.98;;
60318;SDS011;46163;52.306;5.634;2023-02-12T07:22:26;0.82;;;0.82;;
60318;SDS011;46163;52.306;5.634;2023-02-12T07:24:51;1.13;;;0.93;;
60318;SDS011;46163;52.306;5.634;2023-02-12T07:27:16;1.00;;;1.00;;
60318;SDS011;46163;52.306;5.634;2023-02-12T07:29:42;0.90;;;0.90;;
60318;SDS011;46163;52.306;5.634;2023-02-12T07:32:08;0.70;;;0.70;;
60318;SDS011;46163;52.306;5.634;2023-02-12T07:34:33;0.82;;;0.80;;
60318;SDS011;46163;52.306;5.634;2023-02-12T07:36:59;0.98;;;0.98;;
60318;SDS011;46163;52.306;5.634;2023-02-12T07:39:24;3.20;;;1.02;;
60318;SDS011;46163;52.306;5.634;2023-02-12T07:41:50;0.82;;;0.82;;
60318;SDS011;46163;52.306;5.634;2023-02-12T07:44:15;1.00;;;1.00;;
60318;SDS011;46163;52.306;5.634;2023-02-12T07:46:42;0.70;;;0.70;;
60318;SDS011;46163;52.306;5.634;2023-02-12T07:49:17;1.00;;;0.90;;
60318;SDS011;46163;52.306;5.634;2023-02-12T07:51:44;0.80;;;0.80;;
60318;SDS011;46163;52.306;5.634;2023-02-12T07:56:47;0.82;;;0.82;;
60318;SDS011;46163;52.306;5.634;2023-02-12T07:59:15;0.90;;;0.90;;
60318;SDS011;46163;52.306;5.634;2023-02-12T08:01:43;0.90;;;0.90;;
60318;SDS011;46163;52.306;5.634;2023-02-12T08:04:12;0.90;;;0.90;;
60318;SDS011;46163;52.306;5.634;2023-02-12T08:06:40;2.05;;;1.10;;
60318;SDS011;46163;52.306;5.634;2023-02-12T08:11:34;0.80;;;0.80;;
60318;SDS011;46163;52.306;5.634;2023-02-12T08:14:01;1.00;;;1.00;;
60318;SDS011;46163;52.306;5.634;2023-02-12T08:16:27;0.85;;;0.82;;
60318;SDS011;46163;52.306;5.634;2023-02-12T08:18:54;0.98;;;0.80;;
60318;SDS011;46163;52.306;5.634;2023-02-12T08:21:20;0.70;;;0.70;;
60318;SDS011;46163;52.306;5.634;2023-02-12T08:23:50;0.90;;;0.90;;
60318;SDS011;46163;52.306;5.634;2023-02-12T08:26:19;0.98;;;0.90;;
60318;SDS011;46163;52.306;5.634;2023-02-12T08:28:47;0.80;;;0.80;;
60318;SDS011;46163;52.306;5.634;2023-02-12T08:31:22;0.95;;;0.95;;
60318;SDS011;46163;52.306;5.634;2023-02-12T08:33:52;1.00;;;1.00;;
60318;SDS011;46163;52.306;5.634;2023-02-12T08:36:20;0.90;;;0.90;;
60318;SDS011;46163;52.306;5.634;2023-02-12T08:38:47;1.05;;;1.05;;
60318;SDS011;46163;52.306;5.634;2023-02-12T08:41:17;1.00;;;1.00;;
60318;SDS011;46163;52.306;5.634;2023-02-12T08:43:44;1.00;;;1.00;;
60318;SDS011;46163;52.306;5.634;2023-02-12T08:46:17;0.93;;;0.93;;
60318;SDS011;46163;52.306;5.634;2023-02-12T08:48:45;0.80;;;0.80;;
60318;SDS011;46163;52.306;5.634;2023-02-12T08:51:20;0.85;;;0.85;;
60318;SDS011;46163;52.306;5.634;2023-02-12T08:53:55;0.82;;;0.82;;
60318;SDS011;46163;52.306;5.634;2023-02-12T08:56:22;1.00;;;1.00;;
60318;SDS011;46163;52.306;5.634;2023-02-12T08:58:49;1.00;;;1.00;;
60318;SDS011;46163;52.306;5.634;2023-02-12T09:01:20;0.80;;;0.80;;
60318;SDS011;46163;52.306;5.634;2023-02-12T09:03:47;1.00;;;1.00;;
60318;SDS011;46163;52.306;5.634;2023-02-12T09:06:14;1.83;;;0.90;;
60318;SDS011;46163;52.306;5.634;2023-02-12T09:08:41;0.95;;;0.95;;
60318;SDS011;46163;52.306;5.634;2023-02-12T09:11:08;0.95;;;0.85;;
60318;SDS011;46163;52.306;5.634;2023-02-12T09:13:37;0.80;;;0.80;;
60318;SDS011;46163;52.306;5.634;2023-02-12T09:16:04;0.90;;;0.90;;
60318;SDS011;46163;52.306;5.634;2023-02-12T09:18:30;0.90;;;0.90;;
60318;SDS011;46163;52.306;5.634;2023-02-12T09:20:59;1.00;;;1.00;;
60318;SDS011;46163;52.306;5.634;2023-02-12T09:23:27;0.90;;;0.90;;
60318;SDS011;46163;52.306;5.634;2023-02-12T09:25:52;0.98;;;0.70;;
60318;SDS011;46163;52.306;5.634;2023-02-12T09:28:18;1.48;;;1.10;;
60318;SDS011;46163;52.306;5.634;2023-02-12T09:30:43;1.02;;;1.02;;
60318;SDS011;46163;52.306;5.634;2023-02-12T09:33:09;1.00;;;1.00;;
60318;SDS011;46163;52.306;5.634;2023-02-12T09:35:36;0.93;;;0.93;;
60318;SDS011;46163;52.306;5.634;2023-02-12T09:38:03;1.02;;;1.00;;
60318;SDS011;46163;52.306;5.634;2023-02-12T09:43:52;1.42;;;1.00;;
60318;SDS011;46163;52.306;5.634;2023-02-12T09:55:43;1.10;;;1.00;;
60318;SDS011;46163;52.306;5.634;2023-02-12T09:58:14;2.97;;;1.10;;
60318;SDS011;46163;52.306;5.634;2023-02-12T10:01:05;0.90;;;0.90;;
60318;SDS011;46163;52.306;5.634;2023-02-12T10:03:36;0.90;;;0.90;;
60318;SDS011;46163;52.306;5.634;2023-02-12T10:06:03;0.90;;;0.90;;
60318;SDS011;46163;52.306;5.634;2023-02-12T10:16:50;1.08;;;1.08;;
60318;SDS011;46163;52.306;5.634;2023-02-12T10:19:49;0.93;;;0.93;;
60318;SDS011;46163;52.306;5.634;2023-02-12T10:27:45;0.90;;;0.90;;
60318;SDS011;46163;52.306;5.634;2023-02-12T10:32:57;1.20;;;1.20;;
60318;SDS011;46163;52.306;5.634;2023-02-12T10:35:28;0.95;;;0.95;;
60318;SDS011;46163;52.306;5.634;2023-02-12T10:37:55;0.90;;;0.90;;
60318;SDS011;46163;52.306;5.634;2023-02-12T10:40:25;1.00;;;1.00;;
60318;SDS011;46163;52.306;5.634;2023-02-12T10:42:56;0.82;;;0.82;;
60318;SDS011;46163;52.306;5.634;2023-02-12T10:45:31;1.17;;;1.10;;
60318;SDS011;46163;52.306;5.634;2023-02-12T10:53:33;1.10;;;1.10;;
60318;SDS011;46163;52.306;5.634;2023-02-12T10:56:05;1.17;;;1.08;;
60318;SDS011;46163;52.306;5.634;2023-02-12T11:01:18;1.00;;;1.00;;
60318;SDS011;46163;52.306;5.634;2023-02-12T11:03:47;1.40;;;1.20;;
60318;SDS011;46163;52.306;5.634;2023-02-12T11:06:14;1.17;;;1.17;;
60318;SDS011;46163;52.306;5.634;2023-02-12T11:08:42;0.73;;;0.73;;
60318;SDS011;46163;52.306;5.634;2023-02-12T11:11:30;0.80;;;0.80;;
60318;SDS011;46163;52.306;5.634;2023-02-12T11:14:19;0.90;;;0.90;;
60318;SDS011;46163;52.306;5.634;2023-02-12T11:16:51;0.90;;;0.90;;
60318;SDS011;46163;52.306;5.634;2023-02-12T11:19:19;1.52;;;1.08;;
60318;SDS011;46163;52.306;5.634;2023-02-12T11:21:45;2.05;;;1.30;;
60318;SDS011;46163;52.306;5.634;2023-02-12T11:24:21;1.52;;;1.42;;
60318;SDS011;46163;52.306;5.634;2023-02-12T11:29:39;1.90;;;1.80;;
60318;SDS011;46163;52.306;5.634;2023-02-12T11:32:06;3.35;;;2.00;;
60318;SDS011;46163;52.306;5.634;2023-02-12T11:34:33;3.08;;;2.03;;
60318;SDS011;46163;52.306;5.634;2023-02-12T11:36:59;2.72;;;2.00;;
60318;SDS011;46163;52.306;5.634;2023-02-12T11:39:30;2.60;;;2.08;;
60318;SDS011;46163;52.306;5.634;2023-02-12T11:44:24;2.53;;;1.90;;
60318;SDS011;46163;52.306;5.634;2023-02-12T11:46:54;2.10;;;1.90;;
60318;SDS011;46163;52.306;5.634;2023-02-12T11:49:30;2.28;;;2.08;;
60318;SDS011;46163;52.306;5.634;2023-02-12T11:51:59;2.25;;;1.90;;
60318;SDS011;46163;52.306;5.634;2023-02-12T11:54:28;2.05;;;1.88;;
60318;SDS011;46163;52.306;5.634;2023-02-12T11:56:56;2.55;;;2.00;;
60318;SDS011;46163;52.306;5.634;2023-02-12T11:59:32;3.15;;;2.10;;
60318;SDS011;46163;52.306;5.634;2023-02-12T12:02:42;3.90;;;2.33;;
60318;SDS011;46163;52.306;5.634;2023-02-12T12:04:52;2.33;;;1.90;;
60318;SDS011;46163;52.306;5.634;2023-02-12T12:07:23;2.35;;;1.80;;
60318;SDS011;46163;52.306;5.634;2023-02-12T12:10:06;1.90;;;1.70;;
60318;SDS011;46163;52.306;5.634;2023-02-12T12:12:54;2.72;;;1.85;;
60318;SDS011;46163;52.306;5.634;2023-02-12T12:15:29;1.60;;;1.45;;
60318;SDS011;46163;52.306;5.634;2023-02-12T12:21:23;1.95;;;1.60;;
60318;SDS011;46163;52.306;5.634;2023-02-12T12:24:43;3.92;;;1.80;;
60318;SDS011;46163;52.306;5.634;2023-02-12T12:27:02;2.03;;;1.70;;
60318;SDS011;46163;52.306;5.634;2023-02-12T12:29:57;2.47;;;1.60;;
60318;SDS011;46163;52.306;5.634;2023-02-12T12:32:30;1.67;;;1.45;;
60318;SDS011;46163;52.306;5.634;2023-02-12T12:35:00;2.33;;;1.52;;
60318;SDS011;46163;52.306;5.634;2023-02-12T12:40:28;1.50;;;1.40;;
60318;SDS011;46163;52.306;5.634;2023-02-12T12:43:13;2.40;;;1.77;;
60318;SDS011;46163;52.306;5.634;2023-02-12T12:48:40;1.88;;;1.40;;
60318;SDS011;46163;52.306;5.634;2023-02-12T12:51:11;2.38;;;1.52;;
60318;SDS011;46163;52.306;5.634;2023-02-12T12:54:06;2.65;;;1.40;;
60318;SDS011;46163;52.306;5.634;2023-02-12T13:18:30;2.20;;;1.30;;
60318;SDS011;46163;52.306;5.634;2023-02-12T13:21:03;1.42;;;1.33;;
60318;SDS011;46163;52.306;5.634;2023-02-12T13:26:16;1.92;;;1.45;;
60318;SDS011;46163;52.306;5.634;2023-02-12T13:28:53;1.40;;;1.30;;
60318;SDS011;46163;52.306;5.634;2023-02-12T13:31:25;4.47;;;1.48;;
60318;SDS011;46163;52.306;5.634;2023-02-12T13:33:54;1.50;;;1.30;;
60318;SDS011;46163;52.306;5.634;2023-02-12T13:36:26;1.40;;;1.30;;
60318;SDS011;46163;52.306;5.634;2023-02-12T13:38:57;1.42;;;1.33;;
60318;SDS011;46163;52.306;5.634;2023-02-12T13:41:41;1.25;;;1.13;;
60318;SDS011;46163;52.306;5.634;2023-02-12T13:44:18;1.10;;;1.00;;
60318;SDS011;46163;52.306;5.634;2023-02-12T13:49:53;1.33;;;1.25;;
60318;SDS011;46163;52.306;5.634;2023-02-12T14:03:32;1.23;;;1.13;;
60318;SDS011;46163;52.306;5.634;2023-02-12T14:06:07;1.27;;;1.20;;
60318;SDS011;46163;52.306;5.634;2023-02-12T14:08:46;1.48;;;1.38;;
60318;SDS011;46163;52.306;5.634;2023-02-12T14:11:15;1.65;;;1.50;;
60318;SDS011;46163;52.306;5.634;2023-02-12T14:13:57;1.50;;;1.40;;
60318;SDS011;46163;52.306;5.634;2023-02-12T14:21:57;1.23;;;1.23;;
60318;SDS011;46163;52.306;5.634;2023-02-12T14:24:48;1.50;;;1.40;;
60318;SDS011;46163;52.306;5.634;2023-02-12T14:37:57;1.30;;;1.30;;
60318;SDS011;46163;52.306;5.634;2023-02-12T14:42:59;1.70;;;1.40;;
60318;SDS011;46163;52.306;5.634;2023-02-12T14:45:33;1.25;;;1.25;;
60318;SDS011;46163;52.306;5.634;2023-02-12T14:48:01;1.42;;;1.25;;
60318;SDS011;46163;52.306;5.634;2023-02-12T14:50:29;1.10;;;1.10;;
60318;SDS011;46163;52.306;5.634;2023-02-12T14:53:03;1.40;;;1.30;;
60318;SDS011;46163;52.306;5.634;2023-02-12T14:55:38;1.50;;;1.40;;
60318;SDS011;46163;52.306;5.634;2023-02-12T14:58:13;1.77;;;1.13;;
60318;SDS011;46163;52.306;5.634;2023-02-12T15:00:44;1.23;;;1.23;;
60318;SDS011;46163;52.306;5.634;2023-02-12T15:05:38;1.10;;;1.10;;
60318;SDS011;46163;52.306;5.634;2023-02-12T15:08:14;1.20;;;1.20;;
60318;SDS011;46163;52.306;5.634;2023-02-12T15:11:25;1.42;;;1.40;;
60318;SDS011;46163;52.306;5.634;2023-02-12T15:14:02;1.20;;;1.10;;
60318;SDS011;46163;52.306;5.634;2023-02-12T15:16:33;1.63;;;1.30;;
60318;SDS011;46163;52.306;5.634;2023-02-12T15:21:43;1.13;;;1.10;;
60318;SDS011;46163;52.306;5.634;2023-02-12T15:24:11;1.50;;;1.40;;
60318;SDS011;46163;52.306;5.634;2023-02-12T15:31:58;2.65;;;1.40;;
60318;SDS011;46163;52.306;5.634;2023-02-12T15:34:29;1.40;;;1.30;;
60318;SDS011;46163;52.306;5.634;2023-02-12T15:36:57;1.80;;;1.70;;
60318;SDS011;46163;52.306;5.634;2023-02-12T15:39:25;1.30;;;1.20;;
60318;SDS011;46163;52.306;5.634;2023-02-12T15:41:52;1.40;;;1.30;;
60318;SDS011;46163;52.306;5.634;2023-02-12T15:49:19;1.00;;;1.00;;
60318;SDS011;46163;52.306;5.634;2023-02-12T15:51:46;1.65;;;1.30;;
60318;SDS011;46163;52.306;5.634;2023-02-12T15:54:12;1.27;;;1.27;;
60318;SDS011;46163;52.306;5.634;2023-02-12T15:56:43;1.10;;;1.10;;
60318;SDS011;46163;52.306;5.634;2023-02-12T15:59:14;1.02;;;1.02;;
60318;SDS011;46163;52.306;5.634;2023-02-12T16:01:51;1.83;;;1.73;;
60318;SDS011;46163;52.306;5.634;2023-02-12T16:04:18;3.65;;;1.92;;
60318;SDS011;46163;52.306;5.634;2023-02-12T16:06:44;3.05;;;2.05;;
60318;SDS011;46163;52.306;5.634;2023-02-12T16:09:17;2.25;;;2.05;;
60318;SDS011;46163;52.306;5.634;2023-02-12T16:11:52;3.78;;;2.20;;
60318;SDS011;46163;52.306;5.634;2023-02-12T16:19:57;4.47;;;3.03;;
60318;SDS011;46163;52.306;5.634;2023-02-12T16:22:38;4.10;;;2.92;;
60318;SDS011;46163;52.306;5.634;2023-02-12T16:25:13;5.13;;;3.10;;
60318;SDS011;46163;52.306;5.634;2023-02-12T16:27:42;3.88;;;2.63;;
60318;SDS011;46163;52.306;5.634;2023-02-12T16:30:38;5.70;;;3.15;;
60318;SDS011;46163;52.306;5.634;2023-02-12T16:36:12;5.40;;;3.40;;
60318;SDS011;46163;52.306;5.634;2023-02-12T16:39:02;5.38;;;3.45;;
60318;SDS011;46163;52.306;5.634;2023-02-12T16:41:33;7.15;;;3.67;;
60318;SDS011;46163;52.306;5.634;2023-02-12T16:46:44;6.38;;;3.42;;
60318;SDS011;46163;52.306;5.634;2023-02-12T16:49:15;4.90;;;3.10;;
60318;SDS011;46163;52.306;5.634;2023-02-12T16:51:42;5.13;;;3.35;;
60318;SDS011;46163;52.306;5.634;2023-02-12T16:54:42;5.25;;;3.00;;
60318;SDS011;46163;52.306;5.634;2023-02-12T16:57:01;5.63;;;4.20;;
60318;SDS011;46163;52.306;5.634;2023-02-12T16:59:27;4.65;;;3.42;;
60318;SDS011;46163;52.306;5.634;2023-02-12T17:02:03;5.10;;;3.80;;
60318;SDS011;46163;52.306;5.634;2023-02-12T17:04:34;4.55;;;3.47;;
60318;SDS011;46163;52.306;5.634;2023-02-12T17:06:59;5.40;;;3.50;;
60318;SDS011;46163;52.306;5.634;2023-02-12T17:09:25;6.40;;;4.47;;
60318;SDS011;46163;52.306;5.634;2023-02-12T17:11:50;4.88;;;3.10;;
60318;SDS011;46163;52.306;5.634;2023-02-12T17:14:17;7.03;;;3.38;;
60318;SDS011;46163;52.306;5.634;2023-02-12T17:16:44;4.60;;;3.28;;
60318;SDS011;46163;52.306;5.634;2023-02-12T17:19:09;3.95;;;2.70;;
60318;SDS011;46163;52.306;5.634;2023-02-12T17:21:36;4.50;;;3.05;;
60318;SDS011;46163;52.306;5.634;2023-02-12T17:24:06;4.47;;;2.80;;
60318;SDS011;46163;52.306;5.634;2023-02-12T17:26:35;7.25;;;2.53;;
60318;SDS011;46163;52.306;5.634;2023-02-12T17:29:00;4.70;;;2.70;;
60318;SDS011;46163;52.306;5.634;2023-02-12T17:31:29;3.42;;;2.47;;
60318;SDS011;46163;52.306;5.634;2023-02-12T17:33:56;3.20;;;2.55;;
60318;SDS011;46163;52.306;5.634;2023-02-12T17:36:22;3.72;;;2.60;;
60318;SDS011;46163;52.306;5.634;2023-02-12T17:38:48;2.53;;;2.22;;
60318;SDS011;46163;52.306;5.634;2023-02-12T17:41:14;3.97;;;2.38;;
60318;SDS011;46163;52.306;5.634;2023-02-12T17:43:39;3.13;;;2.30;;
60318;SDS011;46163;52.306;5.634;2023-02-12T17:46:09;3.60;;;2.65;;
60318;SDS011;46163;52.306;5.634;2023-02-12T17:48:35;2.83;;;2.30;;
60318;SDS011;46163;52.306;5.634;2023-02-12T17:51:04;2.67;;;2.13;;
60318;SDS011;46163;52.306;5.634;2023-02-12T17:53:30;2.47;;;2.10;;
60318;SDS011;46163;52.306;5.634;2023-02-12T17:55:59;2.63;;;2.10;;
60318;SDS011;46163;52.306;5.634;2023-02-12T17:58:24;3.70;;;2.25;;
60318;SDS011;46163;52.306;5.634;2023-02-12T18:00:50;2.65;;;2.05;;
60318;SDS011;46163;52.306;5.634;2023-02-12T18:03:15;3.72;;;2.30;;
60318;SDS011;46163;52.306;5.634;2023-02-12T18:05:41;2.70;;;2.00;;
60318;SDS011;46163;52.306;5.634;2023-02-12T18:08:07;2.20;;;2.00;;
60318;SDS011;46163;52.306;5.634;2023-02-12T18:10:38;2.78;;;2.00;;
60318;SDS011;46163;52.306;5.634;2023-02-12T18:13:08;3.05;;;2.15;;
60318;SDS011;46163;52.306;5.634;2023-02-12T18:15:34;2.60;;;1.95;;
60318;SDS011;46163;52.306;5.634;2023-02-12T18:18:00;2.35;;;1.90;;
60318;SDS011;46163;52.306;5.634;2023-02-12T18:20:25;2.33;;;1.98;;
60318;SDS011;46163;52.306;5.634;2023-02-12T18:22:54;2.75;;;2.10;;
60318;SDS011;46163;52.306;5.634;2023-02-12T18:25:21;2.17;;;1.98;;